This is the latest recevied weather packets stored in our database for station/object F8KGK-5. If no packets are shown the sender has not sent any weather packets the latest 1 day(s).
| Time | Temp. | Humidity | Pressure | Rain* | Wind** | Luminosity | Snow |
|---|---|---|---|---|---|---|---|
| 1778082404 | 16.11° C | 48% | 1005.3 hPa | 0 mm | - | - | - |
| 1778073052 | 22.78° C | 39% | 1005.2 hPa | 0 mm | - | - | - |
| 1778071252 | 20° C | 43% | 1005.1 hPa | 0 mm | - | - | - |
| 1778065851 | 23.33° C | 40% | 1004.8 hPa | 0 mm | - | - | - |
| 1778064052 | 21.67° C | 42% | 1004.9 hPa | 0 mm | - | - | - |
| 1778058652 | 18.89° C | 50% | 1004.5 hPa | 0 mm | - | - | - |
| 1778056851 | 16.11° C | 56% | 1004.2 hPa | 0 mm | - | - | - |
| 1778055052 | 19.44° C | 53% | 1004.2 hPa | 0 mm | - | - | - |
| 1778049652 | 10.56° C | 79% | 1003.5 hPa | 0 mm | - | - | - |
| 1778047851 | 10° C | 82% | 1003.5 hPa | 0 mm | - | - | - |
| 1778046052 | 8.89° C | 84% | 1003.3 hPa | 0 mm | - | - | - |
| 1778042450 | 8.33° C | 84% | 1003.1 hPa | 0 mm | - | - | - |
| 1778040651 | 8.33° C | 83% | 1003 hPa | 0 mm | - | - | - |
| 1778038851 | 8.33° C | 82% | 1002.9 hPa | 0 mm | - | - | - |
| 1778038652 | 8.33° C | 82% | 1002.9 hPa | 0 mm | - | - | - |
| 1778036851 | 8.33° C | 83% | 1002.9 hPa | 0 mm | - | - | - |
| 1778036656 | 8.33° C | 83% | 1002.9 hPa | 0 mm | - | - | - |
| 1778034855 | 8.33° C | 82% | 1002.7 hPa | 0 mm | - | - | - |
| 1778033056 | 8.89° C | 81% | 1002.8 hPa | 0 mm | - | - | - |
| 1778031254 | 8.89° C | 81% | 1002.7 hPa | 0 mm | - | - | - |
| 1778027655 | 9.44° C | 79% | 1002.8 hPa | 0 mm | - | - | - |
| 1778025856 | 9.44° C | 79% | 1002.8 hPa | 0 mm | - | - | - |
| 1778024055 | 10° C | 78% | 1002.9 hPa | 0 mm | - | - | - |
| 1778015055 | 11.11° C | 80% | 1002.9 hPa | 0 mm | - | - | - |
| 1778006055 | 12.22° C | 76% | 1001.9 hPa | 0 mm | - | - | - |
* Rain latest hour (hover to see other rain measurements)
** Current wind speed in m/s (hover to see current wind gust speed)